createdAt,value
2022-11-28T00:01:34.316Z,57.34
2022-11-28T00:04:02.152Z,57.35
2022-11-28T00:06:29.915Z,57.30
2022-11-28T00:09:00.710Z,57.33
2022-11-28T00:11:27.940Z,57.34
2022-11-28T00:13:55.075Z,57.34
2022-11-28T00:16:24.303Z,57.40
2022-11-28T00:18:53.049Z,57.24
2022-11-28T00:21:20.761Z,57.23
2022-11-28T00:23:49.404Z,57.34
2022-11-28T00:26:45.923Z,57.31
2022-11-28T00:29:13.393Z,57.17
2022-11-28T00:31:46.279Z,57.30
2022-11-28T00:34:15.018Z,57.07
2022-11-28T00:36:45.158Z,57.22
2022-11-28T00:39:13.285Z,57.10
2022-11-28T00:41:40.467Z,57.06
2022-11-28T00:44:07.831Z,57.18
2022-11-28T00:46:35.266Z,57.18
2022-11-28T00:49:02.308Z,57.19
2022-11-28T00:51:32.442Z,57.11
2022-11-28T00:54:00.983Z,57.19
2022-11-28T00:56:33.948Z,57.02
2022-11-28T00:59:01.163Z,57.11
2022-11-28T01:01:33.948Z,56.90
2022-11-28T01:04:04.486Z,57.05
2022-11-28T01:06:35.247Z,57.21
2022-11-28T01:09:06.123Z,57.01
2022-11-28T01:11:33.546Z,57.17
2022-11-28T01:14:02.252Z,56.98
2022-11-28T01:16:29.789Z,56.87
2022-11-28T01:18:57.298Z,56.94
2022-11-28T01:21:25.228Z,57.05
2022-11-28T01:23:52.436Z,57.07
2022-11-28T01:26:23.699Z,57.03
2022-11-28T01:28:53.650Z,56.89
2022-11-28T01:31:23.809Z,56.92
2022-11-28T01:33:51.727Z,56.99
2022-11-28T01:36:21.092Z,56.97
2022-11-28T01:38:48.589Z,57.07
2022-11-28T01:41:20.520Z,56.85
2022-11-28T01:44:04.204Z,56.78
2022-11-28T01:46:32.786Z,56.76
2022-11-28T01:49:07.486Z,56.74
2022-11-28T01:51:35.888Z,56.87
2022-11-28T01:54:04.139Z,56.76
2022-11-28T01:56:40.785Z,56.91
2022-11-28T01:59:11.355Z,56.68
2022-11-28T02:01:39.744Z,56.67
2022-11-28T02:04:07.162Z,56.87
2022-11-28T02:06:34.730Z,56.98
2022-11-28T02:09:01.867Z,56.96
2022-11-28T02:11:55.808Z,56.92
2022-11-28T02:15:00.506Z,56.99
2022-11-28T02:17:48.722Z,57.02
2022-11-28T02:20:35.861Z,57.08
2022-11-28T02:23:17.590Z,56.87
2022-11-28T02:25:47.142Z,56.85
2022-11-28T02:28:26.466Z,57.07
2022-11-28T02:31:15.192Z,57.07
2022-11-28T02:34:14.940Z,57.04
2022-11-28T02:36:55.812Z,57.10
2022-11-28T02:39:45.545Z,57.17
2022-11-28T02:42:22.587Z,57.10
2022-11-28T02:45:10.986Z,57.19
2022-11-28T02:47:45.143Z,57.22
2022-11-28T02:50:19.820Z,57.33
2022-11-28T02:52:53.981Z,57.12
2022-11-28T02:55:21.665Z,57.07
2022-11-28T02:57:51.844Z,57.16
2022-11-28T03:00:26.902Z,57.04
2022-11-28T03:03:13.943Z,57.09
2022-11-28T03:05:58.098Z,57.08
2022-11-28T03:08:40.040Z,57.00
2022-11-28T03:11:23.655Z,57.05
2022-11-28T03:13:59.080Z,57.06
2022-11-28T03:16:28.997Z,57.07
2022-11-28T03:19:30.061Z,56.98
2022-11-28T03:22:02.974Z,56.87
2022-11-28T03:24:51.107Z,56.95
2022-11-28T03:27:34.781Z,56.99
2022-11-28T03:30:10.174Z,56.89
2022-11-28T03:32:39.580Z,56.98
2022-11-28T03:35:12.277Z,56.86
2022-11-28T03:38:12.016Z,56.97
2022-11-28T03:40:46.861Z,56.92
2022-11-28T03:43:19.448Z,56.92
2022-11-28T03:45:51.417Z,56.86
2022-11-28T03:48:26.647Z,56.91
2022-11-28T03:51:01.841Z,56.92
2022-11-28T03:53:37.855Z,56.86
2022-11-28T03:56:17.926Z,56.93
2022-11-28T03:58:54.916Z,56.79
2022-11-28T04:01:44.250Z,56.96
2022-11-28T04:04:31.946Z,56.92
2022-11-28T04:07:16.442Z,56.84
2022-11-28T04:09:53.997Z,56.86
2022-11-28T04:12:39.476Z,56.78
2022-11-28T04:15:35.556Z,56.92
2022-11-28T04:18:05.467Z,57.04
2022-11-28T04:20:54.703Z,56.85
2022-11-28T04:23:23.092Z,56.89
2022-11-28T04:26:07.648Z,57.04
2022-11-28T04:28:36.637Z,56.86
2022-11-28T04:31:06.195Z,56.91
2022-11-28T04:33:38.526Z,56.86
2022-11-28T04:36:08.283Z,56.86
2022-11-28T04:38:38.331Z,56.87
2022-11-28T04:41:18.782Z,56.90
2022-11-28T04:43:59.543Z,56.91
2022-11-28T04:46:43.457Z,56.77
2022-11-28T04:49:11.645Z,56.83
2022-11-28T04:51:41.247Z,56.90
2022-11-28T04:54:16.433Z,56.86
2022-11-28T04:56:51.221Z,56.66
2022-11-28T04:59:21.681Z,56.81
2022-11-28T05:01:50.543Z,56.66
2022-11-28T05:04:20.122Z,56.90
2022-11-28T05:06:47.200Z,56.91
2022-11-28T05:09:14.753Z,56.81
2022-11-28T05:11:41.969Z,56.71
2022-11-28T05:14:08.920Z,56.77
2022-11-28T05:16:35.821Z,56.80
2022-11-28T05:19:02.879Z,56.76
2022-11-28T05:21:30.917Z,56.76
2022-11-28T05:23:57.959Z,56.78
2022-11-28T05:26:26.186Z,56.72
2022-11-28T05:28:56.022Z,56.67
2022-11-28T05:31:23.117Z,56.64
2022-11-28T05:33:50.601Z,56.57
2022-11-28T05:36:18.626Z,56.61
2022-11-28T05:38:45.938Z,56.61
2022-11-28T05:41:28.705Z,56.60
2022-11-28T05:43:57.366Z,56.59
2022-11-28T05:46:24.986Z,56.55
2022-11-28T05:48:51.946Z,56.62
2022-11-28T05:51:19.054Z,56.58
2022-11-28T05:53:45.993Z,56.70
2022-11-28T05:56:17.098Z,56.51
2022-11-28T05:58:44.599Z,56.60
2022-11-28T06:01:20.106Z,56.46
2022-11-28T06:03:47.231Z,56.50
2022-11-28T06:06:19.706Z,56.43
2022-11-28T06:08:48.111Z,56.41
2022-11-28T06:11:16.665Z,56.36
2022-11-28T06:13:44.777Z,56.51
2022-11-28T06:16:17.120Z,56.42
2022-11-28T06:18:44.458Z,56.49
2022-11-28T06:21:13.648Z,56.39
2022-11-28T06:23:40.953Z,56.33
2022-11-28T06:26:11.186Z,56.42
2022-11-28T06:28:39.124Z,56.35
2022-11-28T06:31:20.624Z,56.28
2022-11-28T06:33:47.914Z,56.33
2022-11-28T06:36:16.856Z,56.25
2022-11-28T06:38:44.618Z,56.22
2022-11-28T06:41:14.716Z,56.16
2022-11-28T06:43:42.147Z,56.33
2022-11-28T06:46:16.151Z,56.30
2022-11-28T06:48:45.694Z,56.66
2022-11-28T06:51:13.701Z,56.50
2022-11-28T06:53:41.106Z,56.50
2022-11-28T06:56:10.535Z,56.38
2022-11-28T06:58:37.777Z,56.46
2022-11-28T07:01:19.029Z,56.28
2022-11-28T07:03:47.050Z,56.33
2022-11-28T07:06:15.888Z,56.32
2022-11-28T07:08:43.568Z,56.45
2022-11-28T07:11:11.621Z,56.45
2022-11-28T07:13:39.196Z,56.26
2022-11-28T07:16:07.862Z,56.28
2022-11-28T07:18:34.991Z,56.33
2022-11-28T07:21:02.550Z,56.51
2022-11-28T07:23:29.692Z,56.27
2022-11-28T07:26:00.864Z,56.37
2022-11-28T07:28:29.160Z,56.41
2022-11-28T07:31:06.775Z,56.25
2022-11-28T07:33:37.635Z,56.26
2022-11-28T07:36:08.604Z,56.28
2022-11-28T07:38:36.897Z,56.33
2022-11-28T07:41:12.111Z,56.32
2022-11-28T07:43:40.268Z,56.20
2022-11-28T07:46:10.244Z,56.34
2022-11-28T07:48:38.526Z,56.37
2022-11-28T07:51:09.321Z,56.24
2022-11-28T07:53:37.114Z,56.24
2022-11-28T07:56:11.019Z,56.22
2022-11-28T07:58:39.183Z,56.07
2022-11-28T08:01:30.132Z,56.10
2022-11-28T08:03:57.773Z,56.10
2022-11-28T08:06:27.816Z,56.19
2022-11-28T08:08:56.252Z,56.24
2022-11-28T08:11:26.011Z,56.23
2022-11-28T08:13:56.539Z,56.26
2022-11-28T08:16:27.334Z,56.17
2022-11-28T08:18:55.358Z,56.16
2022-11-28T08:21:28.085Z,56.16
2022-11-28T08:23:59.986Z,56.21
2022-11-28T08:26:31.145Z,56.20
2022-11-28T08:29:00.270Z,56.25
2022-11-28T08:31:30.478Z,56.10
2022-11-28T08:33:59.714Z,56.19
2022-11-28T08:36:29.307Z,56.22
2022-11-28T08:39:16.540Z,56.10
2022-11-28T08:41:44.004Z,56.15
2022-11-28T08:44:11.006Z,56.19
2022-11-28T08:46:37.918Z,56.19
2022-11-28T08:49:04.985Z,56.14
2022-11-28T08:51:32.405Z,56.14
2022-11-28T08:54:00.352Z,55.96
2022-11-28T08:56:27.932Z,55.80
2022-11-28T08:58:55.533Z,55.72
2022-11-28T09:01:26.002Z,55.69
2022-11-28T09:03:54.927Z,55.67
2022-11-28T09:06:23.775Z,55.67
2022-11-28T09:08:51.854Z,55.65
2022-11-28T09:11:20.718Z,55.60
2022-11-28T09:13:48.333Z,55.63
2022-11-28T09:16:15.791Z,55.71
2022-11-28T09:18:42.963Z,55.70
2022-11-28T09:21:13.013Z,55.65
2022-11-28T09:23:41.954Z,55.72
2022-11-28T09:26:18.583Z,55.75
2022-11-28T09:28:46.398Z,55.73
2022-11-28T09:31:15.469Z,55.69
2022-11-28T09:33:43.867Z,55.73
2022-11-28T09:36:13.416Z,55.79
2022-11-28T09:38:40.525Z,55.71
2022-11-28T09:41:22.456Z,55.51
2022-11-28T09:43:54.723Z,55.64
2022-11-28T09:46:29.336Z,55.63
2022-11-28T09:49:01.157Z,55.71
2022-11-28T09:51:37.294Z,55.67
2022-11-28T09:54:22.501Z,55.76
2022-11-28T09:56:50.719Z,55.66
2022-11-28T09:59:28.172Z,55.68
2022-11-28T10:02:03.149Z,55.75
2022-11-28T10:04:45.297Z,55.63
2022-11-28T10:07:37.974Z,55.60
2022-11-28T10:10:19.837Z,55.72
2022-11-28T10:13:19.568Z,55.59
2022-11-28T10:15:52.336Z,55.63
2022-11-28T10:18:37.686Z,55.59
2022-11-28T10:21:39.025Z,55.63
2022-11-28T10:24:14.637Z,55.63
2022-11-28T10:26:47.615Z,55.67
2022-11-28T10:29:30.667Z,55.71
2022-11-28T10:32:00.291Z,55.75
2022-11-28T10:34:39.181Z,55.67
2022-11-28T10:37:21.855Z,55.67
2022-11-28T10:39:48.884Z,55.65
2022-11-28T10:42:24.545Z,55.65
2022-11-28T10:45:16.675Z,55.64
2022-11-28T10:47:50.427Z,55.73
2022-11-28T10:50:59.054Z,55.55
2022-11-28T10:53:35.222Z,55.48
2022-11-28T10:56:28.385Z,55.58
2022-11-28T10:59:02.924Z,55.53
2022-11-28T11:01:34.909Z,55.53
2022-11-28T11:04:02.063Z,55.55
2022-11-28T11:06:40.841Z,55.55
2022-11-28T11:09:09.719Z,55.53
2022-11-28T11:11:46.651Z,55.58
2022-11-28T11:14:13.647Z,55.40
2022-11-28T11:17:00.724Z,55.47
2022-11-28T11:19:44.789Z,55.45
2022-11-28T11:22:21.581Z,55.48
2022-11-28T11:25:12.599Z,55.35
2022-11-28T11:27:48.951Z,55.40
2022-11-28T11:30:27.237Z,55.29
2022-11-28T11:32:56.590Z,55.42
2022-11-28T11:35:48.410Z,55.31
2022-11-28T11:38:15.449Z,55.39
2022-11-28T11:40:42.424Z,55.26
2022-11-28T11:43:35.845Z,55.32
2022-11-28T11:46:14.709Z,55.31
2022-11-28T11:48:52.772Z,55.36
2022-11-28T11:51:26.900Z,55.31
2022-11-28T11:54:20.331Z,55.36
2022-11-28T11:57:00.661Z,55.28
2022-11-28T12:00:15.398Z,55.21
2022-11-28T12:03:00.401Z,55.38
2022-11-28T12:06:12.244Z,55.20
2022-11-28T12:08:38.289Z,55.14
2022-11-28T12:11:16.730Z,55.12
2022-11-28T12:13:45.112Z,55.18
2022-11-28T12:16:23.742Z,55.20
2022-11-28T12:19:02.702Z,55.25
2022-11-28T12:21:41.373Z,54.98
2022-11-28T12:24:15.594Z,55.07
2022-11-28T12:26:53.349Z,55.09
2022-11-28T12:29:39.090Z,55.04
2022-11-28T12:32:38.385Z,54.93
2022-11-28T12:35:14.206Z,55.04
2022-11-28T12:40:56.488Z,55.16
2022-11-28T12:43:35.279Z,54.99
2022-11-28T12:46:18.605Z,55.04
2022-11-28T12:48:53.584Z,55.13
2022-11-28T12:51:38.964Z,55.15
2022-11-28T12:54:44.465Z,55.18
2022-11-28T12:57:42.260Z,54.94
2022-11-28T13:00:22.995Z,55.04
2022-11-28T13:02:52.603Z,54.93
2022-11-28T13:05:36.059Z,55.08
2022-11-28T13:08:13.007Z,54.95
2022-11-28T13:11:03.230Z,54.94
2022-11-28T13:13:35.773Z,54.92
2022-11-28T13:16:27.237Z,55.01
2022-11-28T13:18:54.609Z,55.00
2022-11-28T13:21:22.826Z,54.92
2022-11-28T13:24:12.805Z,54.85
2022-11-28T13:26:45.417Z,54.97
2022-11-28T13:29:23.992Z,54.99
2022-11-28T13:32:20.144Z,54.92
2022-11-28T13:34:48.299Z,54.87
2022-11-28T13:41:08.969Z,54.99
2022-11-28T13:43:59.739Z,54.76
2022-11-28T13:46:27.084Z,54.88
2022-11-28T13:49:15.885Z,54.88
2022-11-28T13:51:48.167Z,54.96
2022-11-28T13:54:22.531Z,54.85
2022-11-28T13:57:28.454Z,54.86
2022-11-28T14:00:04.728Z,54.99
2022-11-28T14:02:48.805Z,54.92
2022-11-28T14:05:26.757Z,54.92
2022-11-28T14:07:55.965Z,54.86
2022-11-28T14:10:28.979Z,54.88
2022-11-28T14:13:28.248Z,54.84
2022-11-28T14:16:07.796Z,54.85
2022-11-28T14:19:05.905Z,54.78
2022-11-28T14:21:55.030Z,54.91
2022-11-28T14:24:34.171Z,54.96
2022-11-28T14:27:04.299Z,54.79
2022-11-28T14:29:41.577Z,54.99
2022-11-28T14:32:42.049Z,54.81
2022-11-28T14:35:37.703Z,54.93
2022-11-28T14:38:27.391Z,54.95
2022-11-28T14:40:55.396Z,54.99
2022-11-28T14:43:27.534Z,54.98
2022-11-28T14:46:20.481Z,54.93
2022-11-28T14:49:00.868Z,54.98
2022-11-28T14:51:46.147Z,55.12
2022-11-28T14:54:23.922Z,55.13
2022-11-28T14:56:58.209Z,55.03
2022-11-28T14:59:37.455Z,55.15
2022-11-28T15:02:13.329Z,54.91
2022-11-28T15:04:59.302Z,55.04
2022-11-28T15:07:42.449Z,55.02
2022-11-28T15:10:33.947Z,55.02
2022-11-28T15:13:03.825Z,54.94
2022-11-28T15:15:32.340Z,54.98
2022-11-28T15:18:03.265Z,54.90
2022-11-28T15:20:38.122Z,55.07
2022-11-28T15:23:05.759Z,55.00
2022-11-28T15:25:37.543Z,55.16
2022-11-28T15:28:15.158Z,55.02
2022-11-28T15:30:48.423Z,55.20
2022-11-28T15:33:15.653Z,55.12
2022-11-28T15:36:20.983Z,55.11
2022-11-28T15:38:48.542Z,55.08
2022-11-28T15:41:21.438Z,55.12
2022-11-28T15:43:48.641Z,55.11
2022-11-28T15:46:31.169Z,55.04
2022-11-28T15:48:58.474Z,55.14
2022-11-28T15:51:29.817Z,55.16
2022-11-28T15:53:57.778Z,55.05
2022-11-28T15:56:26.232Z,55.09
2022-11-28T15:58:55.281Z,55.08
2022-11-28T16:01:25.372Z,55.16
2022-11-28T16:04:13.632Z,55.19
2022-11-28T16:06:44.016Z,55.08
2022-11-28T16:09:20.257Z,55.14
2022-11-28T16:11:49.854Z,54.97
2022-11-28T16:14:26.947Z,55.14
2022-11-28T16:16:55.303Z,55.04
2022-11-28T16:19:36.988Z,55.14
2022-11-28T16:22:03.914Z,55.06
2022-11-28T16:24:42.652Z,55.19
2022-11-28T16:27:26.099Z,55.23
2022-11-28T16:29:53.218Z,55.05
2022-11-28T16:32:31.799Z,55.24
2022-11-28T16:35:02.668Z,55.06
2022-11-28T16:37:32.422Z,55.10
2022-11-28T16:40:04.892Z,55.04
2022-11-28T16:42:33.601Z,54.99
2022-11-28T16:45:15.847Z,55.03
2022-11-28T16:47:43.999Z,55.10
2022-11-28T16:50:21.392Z,55.09
2022-11-28T16:52:50.507Z,55.11
2022-11-28T16:55:29.373Z,55.02
2022-11-28T16:58:18.287Z,54.90
2022-11-28T17:00:52.033Z,54.95
2022-11-28T17:03:45.532Z,55.00
2022-11-28T17:06:19.512Z,55.04
2022-11-28T17:08:46.649Z,54.96
2022-11-28T17:11:19.930Z,55.06
2022-11-28T17:13:46.883Z,54.96
2022-11-28T17:16:23.145Z,54.96
2022-11-28T17:18:51.055Z,54.96
2022-11-28T17:21:43.671Z,55.07
2022-11-28T17:24:16.613Z,54.96
2022-11-28T17:26:43.938Z,54.85
2022-11-28T17:29:13.011Z,54.91
2022-11-28T17:31:42.283Z,54.85
2022-11-28T17:34:20.142Z,54.78
2022-11-28T17:36:48.127Z,54.72
2022-11-28T17:39:15.727Z,54.84
2022-11-28T17:41:44.044Z,54.89
2022-11-28T17:44:18.468Z,54.75
2022-11-28T17:46:47.172Z,54.68
2022-11-28T17:49:16.638Z,54.74
2022-11-28T17:51:47.049Z,54.70
2022-11-28T17:54:19.845Z,54.85
2022-11-28T17:56:53.534Z,54.78
2022-11-28T17:59:23.576Z,54.82
2022-11-28T18:01:55.391Z,54.76
2022-11-28T18:04:28.660Z,54.79
2022-11-28T18:07:05.192Z,54.73
2022-11-28T18:09:34.421Z,54.71
2022-11-28T18:12:02.181Z,54.78
2022-11-28T18:14:39.348Z,54.59
2022-11-28T18:17:09.405Z,54.59
2022-11-28T18:19:38.437Z,54.68
2022-11-28T18:22:08.949Z,54.64
2022-11-28T18:24:40.142Z,54.85
2022-11-28T18:27:11.283Z,54.83
2022-11-28T18:29:39.793Z,54.78
2022-11-28T18:32:07.983Z,54.79
2022-11-28T18:34:36.326Z,54.68
2022-11-28T18:37:05.848Z,54.92
2022-11-28T18:39:35.412Z,54.61
2022-11-28T18:42:05.878Z,54.70
2022-11-28T18:44:36.406Z,54.89
2022-11-28T18:47:04.362Z,54.83
2022-11-28T18:49:33.103Z,54.81
2022-11-28T18:52:01.340Z,54.70
2022-11-28T18:54:34.254Z,54.75
2022-11-28T18:57:12.534Z,54.90
2022-11-28T18:59:48.979Z,54.93
2022-11-28T19:02:22.678Z,54.78
2022-11-28T19:04:50.299Z,54.91
2022-11-28T19:07:33.929Z,54.81
2022-11-28T19:10:01.916Z,54.77
2022-11-28T19:12:30.887Z,54.85
2022-11-28T19:15:02.491Z,55.08
2022-11-28T19:17:32.946Z,55.05
2022-11-28T19:20:00.842Z,55.07
2022-11-28T19:22:32.051Z,55.04
2022-11-28T19:24:59.983Z,55.06
2022-11-28T19:27:29.040Z,54.87
2022-11-28T19:30:00.337Z,54.86
2022-11-28T19:32:28.077Z,54.98
2022-11-28T19:34:57.018Z,54.76
2022-11-28T19:37:25.618Z,54.88
2022-11-28T19:39:54.967Z,54.80
2022-11-28T19:42:32.054Z,54.69
2022-11-28T19:44:59.392Z,54.74
2022-11-28T19:47:28.570Z,54.81
2022-11-28T19:49:57.839Z,54.80
2022-11-28T19:52:26.315Z,54.66
2022-11-28T19:54:54.516Z,54.80
2022-11-28T19:57:23.540Z,54.67
2022-11-28T19:59:53.910Z,54.50
2022-11-28T20:02:24.028Z,54.57
2022-11-28T20:04:54.621Z,54.60
2022-11-28T20:07:25.180Z,54.59
2022-11-28T20:09:52.845Z,54.53
2022-11-28T20:12:21.590Z,54.61
2022-11-28T20:14:51.666Z,54.63
2022-11-28T20:17:21.388Z,54.55
2022-11-28T20:19:49.898Z,54.54
2022-11-28T20:22:20.655Z,54.57
2022-11-28T20:24:48.818Z,54.49
2022-11-28T20:27:19.580Z,54.50
2022-11-28T20:29:47.436Z,54.46
2022-11-28T20:32:17.091Z,54.37
2022-11-28T20:34:45.045Z,54.43
2022-11-28T20:37:16.013Z,54.39
2022-11-28T20:39:43.912Z,54.37
2022-11-28T20:42:12.566Z,54.37
2022-11-28T20:44:40.795Z,54.34
2022-11-28T20:47:08.965Z,54.30
2022-11-28T20:49:38.945Z,54.28
2022-11-28T20:52:08.842Z,54.31
2022-11-28T20:54:38.697Z,54.30
2022-11-28T20:57:24.988Z,54.29
2022-11-28T20:59:57.449Z,54.43
2022-11-28T21:02:25.121Z,54.28
2022-11-28T21:04:55.779Z,54.23
2022-11-28T21:07:34.500Z,54.29
2022-11-28T21:10:05.513Z,54.18
2022-11-28T21:12:35.615Z,54.41
2022-11-28T21:15:03.753Z,54.29
2022-11-28T21:17:35.210Z,54.30
2022-11-28T21:20:08.759Z,54.21
2022-11-28T21:22:42.608Z,54.29
2022-11-28T21:25:10.816Z,54.31
2022-11-28T21:27:38.034Z,54.35
2022-11-28T21:30:07.829Z,54.45
2022-11-28T21:32:39.604Z,54.49
2022-11-28T21:35:12.364Z,54.35
2022-11-28T21:37:41.200Z,54.38
2022-11-28T21:40:12.245Z,54.31
2022-11-28T21:42:45.596Z,54.36
2022-11-28T21:45:15.941Z,54.43
2022-11-28T21:47:43.098Z,54.30
2022-11-28T21:50:10.593Z,54.23
2022-11-28T21:52:49.341Z,54.24
2022-11-28T21:55:17.218Z,54.41
2022-11-28T21:57:46.038Z,54.31
2022-11-28T22:00:45.970Z,54.13
2022-11-28T22:03:14.097Z,54.17
2022-11-28T22:05:48.814Z,54.09
2022-11-28T22:08:17.645Z,54.18
2022-11-28T22:10:47.202Z,54.29
2022-11-28T22:13:14.765Z,54.12
2022-11-28T22:15:45.744Z,54.15
2022-11-28T22:18:14.955Z,54.08
2022-11-28T22:20:48.904Z,54.05
2022-11-28T22:23:26.938Z,54.24
2022-11-28T22:25:59.663Z,54.20
2022-11-28T22:28:33.750Z,54.06
2022-11-28T22:31:15.762Z,54.15
2022-11-28T22:33:44.105Z,54.12
2022-11-28T22:36:20.494Z,54.10
2022-11-28T22:39:01.538Z,54.19
2022-11-28T22:41:30.155Z,54.09
2022-11-28T22:44:05.987Z,54.08
2022-11-28T22:46:35.445Z,53.97
2022-11-28T22:49:05.976Z,54.14
2022-11-28T22:51:38.086Z,54.12
2022-11-28T22:54:14.603Z,54.22
2022-11-28T22:56:48.514Z,54.05
2022-11-28T22:59:21.251Z,54.15
2022-11-28T23:01:56.297Z,54.04
2022-11-28T23:04:29.950Z,54.13
2022-11-28T23:07:02.504Z,54.03
2022-11-28T23:09:30.064Z,54.08
2022-11-28T23:11:59.665Z,54.04
2022-11-28T23:14:32.931Z,54.02
2022-11-28T23:17:06.055Z,54.13
2022-11-28T23:19:36.657Z,54.08
2022-11-28T23:22:06.620Z,54.10
2022-11-28T23:24:39.335Z,54.13
2022-11-28T23:27:09.985Z,54.13
2022-11-28T23:29:44.187Z,54.09
2022-11-28T23:32:13.388Z,54.00
2022-11-28T23:34:43.277Z,54.09
2022-11-28T23:37:16.025Z,54.11
2022-11-28T23:39:46.594Z,54.09
2022-11-28T23:42:17.258Z,54.07
2022-11-28T23:44:47.944Z,54.05
2022-11-28T23:47:16.585Z,54.09
2022-11-28T23:49:46.240Z,54.04
2022-11-28T23:52:16.846Z,53.83
2022-11-28T23:54:45.537Z,54.02
2022-11-28T23:57:20.471Z,53.99
2022-11-28T23:59:49.265Z,53.92
